Time,TemperatureF,DewpointF,PressureIn,WindDirection,WindDirectionDegrees,WindSpeedMPH,WindSpeedGustMPH,Humidity,HourlyPrecipIn,Conditions,Clouds,dailyrainin,SolarRadiationWatts/m^2,SoftwareType,DateUTC
2013-03-16 00:02:00,72.0,44.0,-100.00,South,185,14.0,22.0,37,0.00,,,0.00,0.000000,,2013-03-16 05:02:00,
2013-03-16 00:32:00,71.0,44.0,-100.00,South,189,14.0,25.0,38,0.00,,,0.00,0.000000,,2013-03-16 05:32:00,
2013-03-16 00:42:00,71.0,44.0,-100.00,South,189,14.0,25.0,38,0.00,,,0.00,0.000000,,2013-03-16 05:42:00,
2013-03-16 00:53:00,71.0,44.0,-100.00,South,189,14.0,25.0,38,0.00,,,0.00,0.000000,,2013-03-16 05:53:00,
2013-03-16 01:02:00,71.0,44.0,-100.00,South,189,14.0,25.0,38,0.00,,,0.00,0.000000,,2013-03-16 06:02:00,
2013-03-16 01:32:00,69.0,44.0,-100.00,SSW,197,11.0,21.0,41,0.00,,,0.00,0.000000,,2013-03-16 06:32:00,
2013-03-16 01:42:00,69.0,44.0,-100.00,SSW,197,11.0,21.0,41,0.00,,,0.00,0.000000,,2013-03-16 06:42:00,
2013-03-16 01:52:00,69.0,44.0,-100.00,SSW,197,11.0,21.0,41,0.00,,,0.00,0.000000,,2013-03-16 06:52:00,
2013-03-16 02:02:00,69.0,44.0,-100.00,SSW,197,11.0,21.0,41,0.00,,,0.00,0.000000,,2013-03-16 07:02:00,
2013-03-16 02:32:00,68.0,45.0,-100.00,SSW,194,10.0,18.0,43,0.00,,,0.00,0.000000,,2013-03-16 07:32:00,
2013-03-16 02:42:00,68.0,45.0,-100.00,SSW,194,10.0,18.0,43,0.00,,,0.00,0.000000,,2013-03-16 07:42:00,
2013-03-16 02:52:00,68.0,45.0,-100.00,SSW,194,10.0,18.0,43,0.00,,,0.00,0.000000,,2013-03-16 07:52:00,
2013-03-16 03:02:00,68.0,45.0,-100.00,SSW,194,10.0,18.0,43,0.00,,,0.00,0.000000,,2013-03-16 08:02:00,
2013-03-16 03:33:00,68.0,41.0,-100.00,SSW,199,13.0,25.0,37,0.00,,,0.00,0.000000,,2013-03-16 08:33:00,
2013-03-16 03:42:00,68.0,41.0,-100.00,SSW,199,13.0,25.0,37,0.00,,,0.00,0.000000,,2013-03-16 08:42:00,
2013-03-16 03:52:00,68.0,41.0,-100.00,SSW,199,13.0,25.0,37,0.00,,,0.00,0.000000,,2013-03-16 08:52:00,
2013-03-16 04:01:00,68.0,41.0,-100.00,SSW,199,13.0,25.0,37,0.00,,,0.00,0.000000,,2013-03-16 09:01:00,
2013-03-16 04:33:00,66.0,42.0,-100.00,SSW,196,11.0,20.0,41,0.00,,,0.00,0.000000,,2013-03-16 09:33:00,
2013-03-16 04:42:00,66.0,42.0,-100.00,SSW,196,11.0,20.0,41,0.00,,,0.00,0.000000,,2013-03-16 09:42:00,
2013-03-16 04:53:00,66.0,42.0,-100.00,SSW,196,11.0,20.0,41,0.00,,,0.00,0.000000,,2013-03-16 09:53:00,
2013-03-16 05:03:00,66.0,42.0,-100.00,SSW,196,11.0,20.0,41,0.00,,,0.00,0.000000,,2013-03-16 10:03:00,
2013-03-16 05:32:00,65.0,43.0,-100.00,SSW,198,12.0,20.0,45,0.00,,,-99.99,0.000000,,2013-03-16 10:32:00,
2013-03-16 05:42:00,65.0,43.0,-100.00,SSW,198,12.0,20.0,45,0.00,,,-99.99,0.000000,,2013-03-16 10:42:00,
2013-03-16 05:53:00,65.0,43.0,-100.00,SSW,198,12.0,20.0,45,0.00,,,-99.99,0.000000,,2013-03-16 10:53:00,
2013-03-16 06:03:00,65.0,43.0,-100.00,SSW,198,12.0,20.0,45,0.00,,,-99.99,0.000000,,2013-03-16 11:03:00,
2013-03-16 06:33:00,63.0,46.0,-100.00,SSW,200,12.0,20.0,53,0.00,,,0.00,0.000000,,2013-03-16 11:33:00,
2013-03-16 06:43:00,63.0,46.0,-100.00,SSW,200,12.0,20.0,53,0.00,,,0.00,0.000000,,2013-03-16 11:43:00,
2013-03-16 06:53:00,63.0,46.0,-100.00,SSW,200,12.0,20.0,53,0.00,,,0.00,0.000000,,2013-03-16 11:53:00,
2013-03-16 07:02:00,63.0,46.0,-100.00,SSW,200,12.0,20.0,53,0.00,,,0.00,0.000000,,2013-03-16 12:02:00,
2013-03-16 07:32:00,62.0,47.0,-100.00,SSW,198,10.0,17.0,58,0.00,,,0.00,0.000000,,2013-03-16 12:32:00,
2013-03-16 07:43:00,62.0,47.0,-100.00,SSW,198,10.0,17.0,58,0.00,,,0.00,0.000000,,2013-03-16 12:43:00,
2013-03-16 07:53:00,62.0,47.0,-100.00,SSW,198,10.0,17.0,58,0.00,,,0.00,0.000000,,2013-03-16 12:53:00,
2013-03-16 08:02:00,62.0,47.0,-100.00,SSW,198,10.0,17.0,58,0.00,,,0.00,0.000000,,2013-03-16 13:02:00,
2013-03-16 08:32:00,61.0,48.0,-100.00,SSW,196,10.0,17.0,62,0.00,,,0.00,7.000000,,2013-03-16 13:32:00,
2013-03-16 08:42:00,61.0,48.0,-100.00,SSW,196,10.0,17.0,62,0.00,,,0.00,7.000000,,2013-03-16 13:42:00,
2013-03-16 08:53:00,61.0,48.0,-100.00,SSW,196,10.0,17.0,62,0.00,,,0.00,7.000000,,2013-03-16 13:53:00,
2013-03-16 09:02:00,61.0,48.0,-100.00,SSW,196,10.0,17.0,62,0.00,,,0.00,7.000000,,2013-03-16 14:02:00,
2013-03-16 09:32:00,65.0,50.0,-100.00,SSW,200,11.0,17.0,58,0.00,,,0.00,165.000000,,2013-03-16 14:32:00,
2013-03-16 09:42:00,65.0,50.0,-100.00,SSW,200,11.0,17.0,58,0.00,,,0.00,165.000000,,2013-03-16 14:42:00,
2013-03-16 09:52:00,65.0,50.0,-100.00,SSW,200,11.0,17.0,58,0.00,,,0.00,165.000000,,2013-03-16 14:52:00,
2013-03-16 10:02:00,65.0,50.0,-100.00,SSW,200,11.0,17.0,58,0.00,,,0.00,165.000000,,2013-03-16 15:02:00,
2013-03-16 10:33:00,69.0,49.0,-100.00,SSW,208,13.0,20.0,49,0.00,,,0.00,417.000000,,2013-03-16 15:33:00,
2013-03-16 10:44:00,69.0,49.0,-100.00,SSW,208,13.0,20.0,49,0.00,,,0.00,417.000000,,2013-03-16 15:44:00,
2013-03-16 10:53:00,69.0,49.0,-100.00,SSW,208,13.0,20.0,49,0.00,,,0.00,417.000000,,2013-03-16 15:53:00,
2013-03-16 11:03:00,69.0,49.0,-100.00,SSW,208,13.0,20.0,49,0.00,,,0.00,417.000000,,2013-03-16 16:03:00,
2013-03-16 11:33:00,75.0,48.0,-100.00,SSW,202,11.0,22.0,39,0.00,,,0.00,644.000000,,2013-03-16 16:33:00,
2013-03-16 11:43:00,75.0,48.0,-100.00,SSW,202,11.0,22.0,39,0.00,,,0.00,644.000000,,2013-03-16 16:43:00,
2013-03-16 11:53:00,75.0,48.0,-100.00,SSW,202,11.0,22.0,39,0.00,,,0.00,644.000000,,2013-03-16 16:53:00,
2013-03-16 12:03:00,75.0,48.0,-100.00,SSW,202,11.0,22.0,39,0.00,,,0.00,644.000000,,2013-03-16 17:03:00,
2013-03-16 12:33:00,80.0,47.0,-100.00,South,185,11.0,19.0,31,0.00,,,0.00,862.000000,,2013-03-16 17:33:00,
2013-03-16 12:43:00,80.0,47.0,-100.00,South,185,11.0,19.0,31,0.00,,,0.00,862.000000,,2013-03-16 17:43:00,
2013-03-16 12:53:00,80.0,47.0,-100.00,South,185,11.0,19.0,31,0.00,,,0.00,862.000000,,2013-03-16 17:53:00,
2013-03-16 13:02:00,80.0,47.0,-100.00,South,185,11.0,19.0,31,0.00,,,0.00,862.000000,,2013-03-16 18:02:00,
2013-03-16 13:33:00,84.0,45.0,-100.00,South,188,12.0,21.0,26,0.00,,,0.00,991.000000,,2013-03-16 18:33:00,
2013-03-16 13:43:00,84.0,45.0,-100.00,South,188,12.0,21.0,26,0.00,,,0.00,991.000000,,2013-03-16 18:43:00,
2013-03-16 13:53:00,84.0,45.0,-100.00,South,188,12.0,21.0,26,0.00,,,0.00,991.000000,,2013-03-16 18:53:00,
2013-03-16 14:02:00,84.0,45.0,-100.00,South,188,12.0,21.0,26,0.00,,,0.00,991.000000,,2013-03-16 19:02:00,
2013-03-16 14:33:00,87.0,44.0,-100.00,South,182,13.0,22.0,22,0.00,,,0.00,1050.000000,,2013-03-16 19:33:00,
2013-03-16 14:42:00,87.0,44.0,-100.00,South,182,13.0,22.0,22,0.00,,,0.00,1050.000000,,2013-03-16 19:42:00,
2013-03-16 14:53:00,87.0,44.0,-100.00,South,182,13.0,22.0,22,0.00,,,0.00,1050.000000,,2013-03-16 19:53:00,
2013-03-16 15:02:00,87.0,44.0,-100.00,South,182,13.0,22.0,22,0.00,,,0.00,1050.000000,,2013-03-16 20:02:00,
2013-03-16 15:33:00,89.0,43.0,-100.00,South,179,13.0,22.0,20,0.00,,,0.00,927.000000,,2013-03-16 20:33:00,
2013-03-16 15:42:00,89.0,43.0,-100.00,South,179,13.0,22.0,20,0.00,,,0.00,927.000000,,2013-03-16 20:42:00,
2013-03-16 15:52:00,89.0,43.0,-100.00,South,179,13.0,22.0,20,0.00,,,0.00,927.000000,,2013-03-16 20:52:00,
2013-03-16 16:02:00,89.0,43.0,-100.00,South,179,13.0,22.0,20,0.00,,,0.00,927.000000,,2013-03-16 21:02:00,
2013-03-16 16:33:00,90.0,42.0,-100.00,South,181,11.0,20.0,19,0.00,,,0.00,903.000000,,2013-03-16 21:33:00,
2013-03-16 16:43:00,90.0,42.0,-100.00,South,181,11.0,20.0,19,0.00,,,0.00,903.000000,,2013-03-16 21:43:00,
2013-03-16 16:53:00,90.0,42.0,-100.00,South,181,11.0,20.0,19,0.00,,,0.00,903.000000,,2013-03-16 21:53:00,
2013-03-16 17:03:00,90.0,42.0,-100.00,South,181,11.0,20.0,19,0.00,,,0.00,903.000000,,2013-03-16 22:03:00,
2013-03-16 17:33:00,90.0,41.0,-100.00,South,177,12.0,20.0,18,0.00,,,0.00,670.000000,,2013-03-16 22:33:00,
2013-03-16 17:42:00,90.0,41.0,-100.00,South,177,12.0,20.0,18,0.00,,,0.00,670.000000,,2013-03-16 22:42:00,
2013-03-16 17:53:00,90.0,41.0,-100.00,South,177,12.0,20.0,18,0.00,,,0.00,670.000000,,2013-03-16 22:53:00,
2013-03-16 18:02:00,90.0,41.0,-100.00,South,177,12.0,20.0,18,0.00,,,0.00,670.000000,,2013-03-16 23:02:00,
2013-03-16 18:33:00,89.0,41.0,-100.00,South,171,12.0,20.0,19,0.00,,,0.00,341.000000,,2013-03-16 23:33:00,
2013-03-16 18:42:00,89.0,41.0,-100.00,South,171,12.0,20.0,19,0.00,,,0.00,341.000000,,2013-03-16 23:42:00,
2013-03-16 18:52:00,89.0,41.0,-100.00,South,171,12.0,20.0,19,0.00,,,0.00,341.000000,,2013-03-16 23:52:00,
2013-03-16 19:02:00,89.0,41.0,-100.00,South,171,12.0,20.0,19,0.00,,,0.00,341.000000,,2013-03-17 00:02:00,
2013-03-16 19:33:00,84.0,44.0,-100.00,SSE,147,11.0,19.0,25,0.00,,,0.00,172.000000,,2013-03-17 00:33:00,
2013-03-16 19:43:00,84.0,44.0,-100.00,SSE,147,11.0,19.0,25,0.00,,,0.00,172.000000,,2013-03-17 00:43:00,
2013-03-16 19:52:00,84.0,44.0,-100.00,SSE,147,11.0,19.0,25,0.00,,,0.00,172.000000,,2013-03-17 00:52:00,
2013-03-16 20:02:00,84.0,44.0,-100.00,SSE,147,11.0,19.0,25,0.00,,,0.00,172.000000,,2013-03-17 01:02:00,
2013-03-16 20:33:00,81.0,46.0,-100.00,SE,146,10.0,16.0,29,0.00,,,0.00,23.000000,,2013-03-17 01:33:00,
2013-03-16 20:43:00,81.0,46.0,-100.00,SE,146,10.0,16.0,29,0.00,,,0.00,23.000000,,2013-03-17 01:43:00,
2013-03-16 20:53:00,81.0,46.0,-100.00,SE,146,10.0,16.0,29,0.00,,,0.00,23.000000,,2013-03-17 01:53:00,
2013-03-16 21:02:00,81.0,46.0,-100.00,SE,146,10.0,16.0,29,0.00,,,0.00,23.000000,,2013-03-17 02:02:00,
2013-03-16 21:33:00,78.0,48.0,-100.00,South,175,9.0,21.0,35,0.00,,,0.00,0.000000,,2013-03-17 02:33:00,
2013-03-16 21:43:00,78.0,48.0,-100.00,South,175,9.0,21.0,35,0.00,,,0.00,0.000000,,2013-03-17 02:43:00,
2013-03-16 21:53:00,78.0,48.0,-100.00,South,175,9.0,21.0,35,0.00,,,0.00,0.000000,,2013-03-17 02:53:00,
2013-03-16 22:02:00,78.0,48.0,-100.00,South,175,9.0,21.0,35,0.00,,,0.00,0.000000,,2013-03-17 03:02:00,
2013-03-16 22:34:00,76.0,48.0,-100.00,WSW,238,7.0,16.0,37,0.00,,,0.00,0.000000,,2013-03-17 03:34:00,
2013-03-16 22:43:00,76.0,48.0,-100.00,WSW,238,7.0,16.0,37,0.00,,,0.00,0.000000,,2013-03-17 03:43:00,
2013-03-16 22:53:00,76.0,48.0,-100.00,WSW,238,7.0,16.0,37,0.00,,,0.00,0.000000,,2013-03-17 03:53:00,
2013-03-16 23:03:00,76.0,48.0,-100.00,WSW,238,7.0,16.0,37,0.00,,,0.00,0.000000,,2013-03-17 04:03:00,
2013-03-16 23:33:00,66.0,47.0,-100.00,WNW,295,5.0,14.0,50,0.00,,,0.00,0.000000,,2013-03-17 04:33:00,
2013-03-16 23:43:00,66.0,47.0,-100.00,WNW,295,5.0,14.0,50,0.00,,,0.00,0.000000,,2013-03-17 04:43:00,
2013-03-16 23:53:00,66.0,47.0,-100.00,WNW,295,5.0,14.0,50,0.00,,,0.00,0.000000,,2013-03-17 04:53:00,